Belyj, Russia
Current Conditions -  °F | °C
As of 2:30 AM on Tuesday 23 Dec 2014 (Local Time) from UUBW Reporting Station
Light Snow Light Snow  
Wind Chill: 20°   Ceiling: 1500
Heat Index: 28°   Visibility: 3mi
Dew Point: 27°   Wind: 9mph
Humidity: 93%   Direction: 150°SSE
Pressure: 29.32"   Gusts: NA
Location:  55.84°N, 32.94°E
Report Text: UUBW 222330Z 15004MPS 5000 -SN OVC015 M02/M03 Q0993 NOSIG
Loading
Personal Weather Stations






























Interactive Weather Map New forecast layout! Learn more

10-Day Weather Forecast

Advertisements
Track Severe Weather on mobile